createdAt,value
2022-10-18T00:00:32.642Z,10.32
2022-10-18T00:03:37.142Z,10.45
2022-10-18T00:06:43.360Z,10.05
2022-10-18T00:09:48.398Z,9.18
2022-10-18T00:12:51.662Z,9.63
2022-10-18T00:15:58.414Z,9.65
2022-10-18T00:19:01.455Z,10.02
2022-10-18T00:22:04.642Z,9.73
2022-10-18T00:25:08.479Z,9.45
2022-10-18T00:28:11.718Z,11.02
2022-10-18T00:31:23.628Z,10.00
2022-10-18T00:34:26.904Z,10.63
2022-10-18T00:37:29.851Z,10.05
2022-10-18T00:40:33.832Z,9.65
2022-10-18T00:43:54.862Z,10.18
2022-10-18T00:47:10.416Z,10.07
2022-10-18T00:50:13.785Z,10.00
2022-10-18T00:53:21.522Z,9.88
2022-10-18T00:56:24.352Z,10.32
2022-10-18T00:59:28.426Z,9.70
2022-10-18T01:02:33.701Z,9.38
2022-10-18T01:05:42.901Z,9.35
2022-10-18T01:09:02.582Z,9.53
2022-10-18T01:12:21.756Z,9.77
2022-10-18T01:15:29.367Z,9.67
2022-10-18T01:18:48.012Z,10.50
2022-10-18T01:21:57.887Z,8.82
2022-10-18T01:25:14.694Z,9.65
2022-10-18T01:28:53.659Z,10.85
2022-10-18T01:32:02.750Z,10.07
2022-10-18T01:35:18.381Z,9.65
2022-10-18T01:38:24.191Z,9.82
2022-10-18T01:41:28.858Z,9.45
2022-10-18T01:44:34.286Z,9.02
2022-10-18T01:47:37.756Z,9.75
2022-10-18T01:50:41.139Z,9.30
2022-10-18T01:53:43.989Z,8.98
2022-10-18T01:57:04.856Z,9.23
2022-10-18T02:00:24.090Z,8.95
2022-10-18T02:03:29.595Z,8.73
2022-10-18T02:06:42.632Z,8.82
2022-10-18T02:10:00.796Z,8.57
2022-10-18T02:13:03.738Z,9.40
2022-10-18T02:16:20.263Z,9.18
2022-10-18T02:19:31.906Z,9.20
2022-10-18T02:22:37.478Z,10.32
2022-10-18T02:25:41.077Z,9.00
2022-10-18T02:28:45.885Z,8.35
2022-10-18T02:32:03.874Z,8.73
2022-10-18T02:35:25.700Z,10.27
2022-10-18T02:38:33.196Z,9.07
2022-10-18T02:41:36.625Z,9.10
2022-10-18T02:44:39.586Z,8.55
2022-10-18T02:47:43.637Z,8.73
2022-10-18T02:50:46.539Z,9.25
2022-10-18T02:53:49.969Z,8.88
2022-10-18T02:56:53.583Z,8.68
2022-10-18T02:59:58.310Z,8.57
2022-10-18T03:03:01.186Z,8.82
2022-10-18T03:06:04.949Z,8.77
2022-10-18T03:09:08.886Z,9.20
2022-10-18T03:12:12.244Z,8.95
2022-10-18T03:15:15.202Z,8.88
2022-10-18T03:18:18.801Z,9.07
2022-10-18T03:21:21.790Z,9.43
2022-10-18T03:24:25.621Z,9.00
2022-10-18T03:27:28.972Z,9.68
2022-10-18T03:30:32.449Z,9.48
2022-10-18T03:33:35.093Z,9.13
2022-10-18T03:36:39.050Z,8.48
2022-10-18T03:39:41.566Z,8.93
2022-10-18T03:42:46.788Z,8.57
2022-10-18T03:45:49.807Z,8.02
2022-10-18T03:48:52.918Z,9.52
2022-10-18T03:51:55.701Z,8.02
2022-10-18T03:54:58.821Z,8.93
2022-10-18T03:58:01.951Z,9.50
2022-10-18T04:01:06.102Z,9.82
2022-10-18T04:04:09.031Z,9.05
2022-10-18T04:07:11.182Z,8.35
2022-10-18T04:10:13.796Z,9.20
2022-10-18T04:13:15.897Z,9.25
2022-10-18T04:16:18.599Z,9.27
2022-10-18T04:19:20.793Z,9.52
2022-10-18T04:22:23.265Z,9.98
2022-10-18T04:25:25.398Z,9.65
2022-10-18T04:28:27.884Z,9.35
2022-10-18T04:31:30.094Z,9.57
2022-10-18T04:34:32.734Z,9.95
2022-10-18T04:37:35.866Z,9.25
2022-10-18T04:40:38.375Z,9.30
2022-10-18T04:43:40.719Z,9.27
2022-10-18T04:46:43.410Z,9.38
2022-10-18T04:49:45.703Z,9.70
2022-10-18T04:55:50.862Z,9.73
2022-10-18T04:58:53.753Z,10.23
2022-10-18T05:01:55.946Z,10.38
2022-10-18T05:04:58.594Z,9.88
2022-10-18T05:08:00.787Z,9.93
2022-10-18T05:11:04.472Z,9.85
2022-10-18T05:14:06.872Z,9.85
2022-10-18T05:17:09.401Z,9.65
2022-10-18T05:20:11.832Z,10.45
2022-10-18T05:23:14.300Z,9.98
2022-10-18T05:26:16.481Z,10.13
2022-10-18T05:29:18.925Z,9.52
2022-10-18T05:32:21.459Z,9.70
2022-10-18T05:35:24.966Z,9.73
2022-10-18T05:38:27.187Z,9.48
2022-10-18T05:41:29.715Z,10.20
2022-10-18T05:44:32.303Z,9.73
2022-10-18T05:50:40.251Z,10.48
2022-10-18T05:53:43.585Z,10.40
2022-10-18T05:56:45.807Z,11.05
2022-10-18T05:59:48.349Z,11.90
2022-10-18T06:02:51.214Z,12.10
2022-10-18T06:05:58.706Z,11.57
2022-10-18T06:09:03.251Z,11.90
2022-10-18T06:12:06.037Z,11.57
2022-10-18T06:15:08.435Z,11.40
2022-10-18T06:18:10.867Z,11.02
2022-10-18T06:21:14.758Z,11.50
2022-10-18T06:24:18.505Z,11.60
2022-10-18T06:27:20.936Z,11.27
2022-10-18T06:30:23.488Z,10.98
2022-10-18T06:33:27.003Z,11.55
2022-10-18T06:36:29.467Z,11.88
2022-10-18T06:39:32.427Z,10.68
2022-10-18T06:42:36.137Z,11.32
2022-10-18T06:45:40.736Z,11.52
2022-10-18T06:48:43.419Z,12.63
2022-10-18T06:51:46.180Z,12.57
2022-10-18T06:54:48.650Z,14.52
2022-10-18T06:57:50.751Z,14.45
2022-10-18T07:00:53.187Z,15.63
2022-10-18T07:03:55.799Z,14.95
2022-10-18T07:06:58.293Z,17.05
2022-10-18T07:10:00.435Z,16.40
2022-10-18T07:13:27.495Z,14.07
2022-10-18T07:16:26.251Z,14.57
2022-10-18T07:19:28.873Z,13.50
2022-10-18T07:22:31.411Z,13.77
2022-10-18T07:25:34.774Z,14.98
2022-10-18T07:28:36.976Z,14.85
2022-10-18T07:31:40.855Z,14.82
2022-10-18T07:34:44.275Z,15.20
2022-10-18T07:37:49.105Z,14.15
2022-10-18T07:41:05.230Z,15.45
2022-10-18T07:44:08.009Z,14.10
2022-10-18T07:47:10.107Z,15.65
2022-10-18T07:50:12.465Z,14.23
2022-10-18T07:53:14.913Z,13.93
2022-10-18T07:56:22.082Z,13.77
2022-10-18T07:59:24.233Z,13.93
2022-10-18T08:02:26.811Z,13.68
2022-10-18T08:05:29.973Z,14.73
2022-10-18T08:08:32.184Z,14.95
2022-10-18T08:11:34.546Z,16.17
2022-10-18T08:14:38.690Z,14.60
2022-10-18T08:17:43.500Z,16.17
2022-10-18T08:20:46.378Z,15.98
2022-10-18T08:23:49.614Z,15.68
2022-10-18T08:26:52.026Z,15.02
2022-10-18T08:29:54.976Z,15.68
2022-10-18T08:32:57.758Z,15.88
2022-10-18T08:36:02.936Z,15.60
2022-10-18T08:39:05.416Z,13.55
2022-10-18T08:42:45.845Z,13.55
2022-10-18T08:45:51.015Z,12.55
2022-10-18T08:48:56.909Z,13.02
2022-10-18T08:51:59.155Z,8.68
2022-10-18T08:55:03.734Z,10.10
2022-10-18T08:58:24.774Z,9.65
2022-10-18T09:01:46.021Z,9.48
2022-10-18T09:05:30.232Z,8.48
2022-10-18T09:08:55.502Z,8.55
2022-10-18T09:12:35.194Z,8.23
2022-10-18T09:15:46.642Z,7.40
2022-10-18T09:18:57.263Z,8.15
2022-10-18T09:22:11.967Z,8.15
2022-10-18T09:25:17.071Z,8.40
2022-10-18T09:28:29.482Z,7.10
2022-10-18T09:31:51.616Z,6.90
2022-10-18T09:35:20.256Z,6.40
2022-10-18T09:38:30.820Z,6.47
2022-10-18T09:41:45.868Z,7.15
2022-10-18T09:44:53.673Z,6.68
2022-10-18T09:48:06.238Z,6.35
2022-10-18T09:51:17.720Z,5.85
2022-10-18T09:54:31.260Z,7.50
2022-10-18T09:57:48.999Z,7.15
2022-10-18T10:00:55.654Z,6.57
2022-10-18T10:03:59.199Z,6.65
2022-10-18T10:07:02.661Z,6.62
2022-10-18T10:10:22.219Z,6.82
2022-10-18T10:13:26.254Z,6.22
2022-10-18T10:16:32.770Z,6.28
2022-10-18T10:19:56.973Z,5.97
2022-10-18T10:23:21.895Z,6.18
2022-10-18T10:26:25.695Z,5.40
2022-10-18T10:29:46.818Z,5.62
2022-10-18T10:32:52.788Z,6.05
2022-10-18T10:36:05.890Z,5.47
2022-10-18T10:39:18.749Z,5.62
2022-10-18T10:42:21.793Z,6.45
2022-10-18T10:45:27.302Z,5.03
2022-10-18T10:48:41.224Z,6.62
2022-10-18T10:51:53.678Z,5.82
2022-10-18T10:55:42.726Z,5.90
2022-10-18T10:58:45.861Z,6.20
2022-10-18T11:01:51.648Z,5.72
2022-10-18T11:04:59.437Z,5.22
2022-10-18T11:08:06.259Z,5.47
2022-10-18T11:11:22.901Z,5.87
2022-10-18T11:14:30.747Z,5.18
2022-10-18T11:18:17.506Z,5.90
2022-10-18T11:21:42.673Z,4.97
2022-10-18T11:24:46.160Z,5.03
2022-10-18T11:28:01.814Z,5.40
2022-10-18T11:31:31.304Z,4.95
2022-10-18T11:35:03.877Z,5.22
2022-10-18T11:38:39.299Z,4.30
2022-10-18T11:42:25.458Z,4.47
2022-10-18T11:46:01.163Z,4.70
2022-10-18T11:50:10.383Z,3.95
2022-10-18T11:53:52.161Z,4.90
2022-10-18T11:57:08.463Z,4.43
2022-10-18T12:00:14.389Z,4.35
2022-10-18T12:03:36.039Z,4.80
2022-10-18T12:06:43.048Z,4.20
2022-10-18T12:13:02.179Z,4.00
2022-10-18T12:16:08.429Z,4.62
2022-10-18T12:19:25.452Z,5.93
2022-10-18T12:25:45.303Z,4.30
2022-10-18T12:29:04.138Z,4.28
2022-10-18T12:32:13.156Z,4.55
2022-10-18T12:35:19.569Z,4.50
2022-10-18T12:38:31.998Z,3.72
2022-10-18T12:41:36.645Z,4.30
2022-10-18T12:44:40.705Z,4.85
2022-10-18T12:47:43.567Z,4.30
2022-10-18T12:51:17.867Z,4.32
2022-10-18T12:55:00.642Z,4.07
2022-10-18T12:58:21.013Z,4.70
2022-10-18T13:01:25.407Z,3.90
2022-10-18T13:04:27.544Z,3.50
2022-10-18T13:07:40.836Z,3.58
2022-10-18T13:10:44.651Z,3.90
2022-10-18T13:13:55.892Z,3.28
2022-10-18T13:17:43.664Z,3.87
2022-10-18T13:21:11.257Z,3.08
2022-10-18T13:24:48.408Z,3.97
2022-10-18T13:28:02.434Z,3.95
2022-10-18T13:31:10.582Z,3.92
2022-10-18T13:34:30.809Z,3.85
2022-10-18T13:37:33.700Z,3.28
2022-10-18T13:40:36.487Z,3.70
2022-10-18T13:43:54.079Z,3.50
2022-10-18T13:46:56.477Z,3.50
2022-10-18T13:50:16.550Z,3.37
2022-10-18T13:53:41.186Z,3.92
2022-10-18T13:57:09.162Z,3.50
2022-10-18T14:04:39.726Z,3.78
2022-10-18T14:07:44.737Z,3.80
2022-10-18T14:11:03.552Z,3.47
2022-10-18T14:14:29.947Z,3.70
2022-10-18T14:17:44.506Z,3.65
2022-10-18T14:21:12.358Z,3.78
2022-10-18T14:24:23.662Z,3.75
2022-10-18T14:27:32.553Z,3.70
2022-10-18T14:30:54.151Z,3.58
2022-10-18T14:33:59.010Z,3.93
2022-10-18T14:37:04.042Z,3.97
2022-10-18T14:40:26.017Z,3.85
2022-10-18T14:43:29.515Z,3.62
2022-10-18T14:46:34.617Z,4.10
2022-10-18T14:49:49.969Z,3.50
2022-10-18T14:52:58.186Z,4.18
2022-10-18T14:56:08.179Z,3.87
2022-10-18T14:59:34.416Z,3.65
2022-10-18T15:02:47.269Z,3.70
2022-10-18T15:06:05.254Z,3.25
2022-10-18T15:09:16.203Z,3.60
2022-10-18T15:12:36.856Z,4.72
2022-10-18T15:15:57.024Z,4.85
2022-10-18T15:19:40.102Z,3.72
2022-10-18T15:22:47.496Z,3.55
2022-10-18T15:25:54.852Z,3.92
2022-10-18T15:29:06.127Z,4.47
2022-10-18T15:32:26.654Z,4.35
2022-10-18T15:35:39.446Z,4.12
2022-10-18T15:38:47.571Z,4.55
2022-10-18T15:41:59.664Z,4.80
2022-10-18T15:45:03.729Z,4.87
2022-10-18T15:48:07.828Z,4.68
2022-10-18T15:51:34.072Z,4.28
2022-10-18T15:55:04.513Z,4.70
2022-10-18T15:58:41.302Z,4.82
2022-10-18T16:01:45.464Z,4.53
2022-10-18T16:04:55.640Z,4.75
2022-10-18T16:08:01.093Z,5.97
2022-10-18T16:11:07.629Z,6.62
2022-10-18T16:14:11.361Z,6.43
2022-10-18T16:17:17.389Z,6.35
2022-10-18T16:20:33.638Z,6.47
2022-10-18T16:23:37.822Z,6.10
2022-10-18T16:26:44.071Z,5.93
2022-10-18T16:29:52.140Z,6.60
2022-10-18T16:32:56.168Z,6.37
2022-10-18T16:36:02.135Z,6.60
2022-10-18T16:39:09.290Z,6.55
2022-10-18T16:42:19.503Z,6.40
2022-10-18T16:45:26.184Z,6.57
2022-10-18T16:48:35.457Z,6.62
2022-10-18T16:51:39.844Z,6.28
2022-10-18T16:54:44.563Z,6.22
2022-10-18T17:01:14.338Z,6.78
2022-10-18T17:04:18.400Z,7.40
2022-10-18T17:07:28.039Z,8.10
2022-10-18T17:10:35.339Z,7.90
2022-10-18T17:13:44.057Z,7.93
2022-10-18T17:16:54.883Z,8.65
2022-10-18T17:20:04.081Z,9.60
2022-10-18T17:23:09.914Z,9.60
2022-10-18T17:26:30.094Z,8.77
2022-10-18T17:29:36.054Z,9.05
2022-10-18T17:32:45.060Z,7.87
2022-10-18T17:35:50.523Z,8.30
2022-10-18T17:38:56.442Z,9.30
2022-10-18T17:42:00.433Z,8.27
2022-10-18T17:45:08.677Z,9.23
2022-10-18T17:48:17.244Z,11.48
2022-10-18T17:51:27.041Z,12.90
2022-10-18T17:54:30.128Z,12.20
2022-10-18T17:57:41.072Z,13.18
2022-10-18T18:00:48.531Z,12.45
2022-10-18T18:04:02.334Z,12.20
2022-10-18T18:07:06.006Z,12.33
2022-10-18T18:10:10.288Z,11.25
2022-10-18T18:13:19.639Z,12.57
2022-10-18T18:16:29.894Z,13.75
2022-10-18T18:19:35.381Z,12.25
2022-10-18T18:22:42.583Z,12.93
2022-10-18T18:25:57.955Z,14.65
2022-10-18T18:32:14.940Z,15.98
2022-10-18T18:38:45.989Z,12.02
2022-10-18T18:41:52.351Z,12.37
2022-10-18T18:44:57.069Z,11.57
2022-10-18T18:48:12.736Z,12.15
2022-10-18T18:51:25.085Z,12.57
2022-10-18T18:54:31.450Z,13.07
2022-10-18T18:57:36.541Z,12.57
2022-10-18T19:00:45.586Z,13.85
2022-10-18T19:03:51.972Z,12.82
2022-10-18T19:06:55.570Z,13.20
2022-10-18T19:10:00.319Z,12.30
2022-10-18T19:13:07.773Z,11.77
2022-10-18T19:16:35.525Z,12.93
2022-10-18T19:19:43.603Z,12.80
2022-10-18T19:22:54.964Z,12.43
2022-10-18T19:26:44.280Z,12.65
2022-10-18T19:29:49.823Z,12.00
2022-10-18T19:36:10.326Z,11.93
2022-10-18T19:39:30.463Z,11.35
2022-10-18T19:42:42.108Z,10.93
2022-10-18T19:45:46.796Z,12.90
2022-10-18T19:48:55.664Z,12.07
2022-10-18T19:52:01.617Z,12.68
2022-10-18T19:55:06.242Z,14.00
2022-10-18T19:58:13.468Z,14.13
2022-10-18T20:01:19.895Z,13.23
2022-10-18T20:04:26.184Z,13.07
2022-10-18T20:07:29.776Z,13.55
2022-10-18T20:10:34.847Z,12.75
2022-10-18T20:13:51.660Z,14.77
2022-10-18T20:17:07.625Z,14.23
2022-10-18T20:20:22.292Z,14.73
2022-10-18T20:23:47.816Z,13.70
2022-10-18T20:26:54.699Z,13.07
2022-10-18T20:30:12.814Z,12.40
2022-10-18T20:33:29.644Z,11.30
2022-10-18T20:40:05.859Z,11.90
2022-10-18T20:43:29.812Z,12.55
2022-10-18T20:46:47.141Z,13.32
2022-10-18T20:50:07.013Z,11.90
2022-10-18T20:53:17.845Z,12.90
2022-10-18T20:56:33.385Z,11.23
2022-10-18T20:59:41.678Z,10.30
2022-10-18T21:02:45.179Z,11.02
2022-10-18T21:05:50.066Z,11.10
2022-10-18T21:09:08.258Z,11.45
2022-10-18T21:12:27.600Z,11.88
2022-10-18T21:15:34.191Z,11.23
2022-10-18T21:18:42.297Z,11.15
2022-10-18T21:21:56.263Z,10.75
2022-10-18T21:25:11.273Z,10.25
2022-10-18T21:28:28.183Z,9.55
2022-10-18T21:31:43.846Z,10.55
2022-10-18T21:34:50.873Z,9.90
2022-10-18T21:38:07.242Z,10.18
2022-10-18T21:41:17.852Z,11.27
2022-10-18T21:44:38.154Z,10.25
2022-10-18T21:47:42.346Z,10.32
2022-10-18T21:50:46.896Z,11.15
2022-10-18T21:53:53.366Z,10.95
2022-10-18T21:57:00.039Z,10.73
2022-10-18T22:00:06.233Z,9.82
2022-10-18T22:03:15.219Z,10.98
2022-10-18T22:06:25.034Z,10.30
2022-10-18T22:09:29.618Z,9.95
2022-10-18T22:12:36.042Z,10.05
2022-10-18T22:15:42.109Z,9.02
2022-10-18T22:18:48.447Z,10.63
2022-10-18T22:21:53.680Z,9.55
2022-10-18T22:25:07.288Z,10.43
2022-10-18T22:28:13.413Z,10.57
2022-10-18T22:31:23.777Z,9.27
2022-10-18T22:34:33.012Z,9.07
2022-10-18T22:37:44.078Z,8.85
2022-10-18T22:40:49.391Z,8.68
2022-10-18T22:43:59.748Z,8.77
2022-10-18T22:47:12.476Z,8.82
2022-10-18T22:50:25.942Z,8.57
2022-10-18T22:53:31.928Z,8.27
2022-10-18T22:56:47.046Z,7.60
2022-10-18T23:00:03.606Z,8.13
2022-10-18T23:03:39.536Z,8.25
2022-10-18T23:06:47.686Z,7.37
2022-10-18T23:09:57.715Z,7.72
2022-10-18T23:13:06.685Z,7.82
2022-10-18T23:16:10.731Z,7.43
2022-10-18T23:19:18.729Z,7.80
2022-10-18T23:22:28.447Z,8.02
2022-10-18T23:25:51.789Z,7.30
2022-10-18T23:28:59.251Z,8.20
2022-10-18T23:32:02.523Z,8.30
2022-10-18T23:35:11.249Z,8.45
2022-10-18T23:38:14.762Z,8.30
2022-10-18T23:41:20.617Z,8.10
2022-10-18T23:44:25.692Z,8.40
2022-10-18T23:47:37.013Z,7.87
2022-10-18T23:53:51.332Z,8.20
2022-10-18T23:56:59.651Z,7.55
